createdAt,value
2022-11-28T00:00:47.682Z,37.85
2022-11-28T00:03:18.538Z,37.94
2022-11-28T00:05:48.783Z,37.91
2022-11-28T00:08:19.652Z,37.73
2022-11-28T00:10:52.075Z,37.59
2022-11-28T00:13:22.618Z,38.06
2022-11-28T00:15:59.538Z,37.87
2022-11-28T00:18:30.839Z,37.93
2022-11-28T00:21:04.620Z,37.94
2022-11-28T00:23:35.695Z,37.91
2022-11-28T00:26:12.008Z,37.75
2022-11-28T00:28:42.454Z,37.95
2022-11-28T00:31:16.816Z,37.91
2022-11-28T00:33:47.399Z,37.96
2022-11-28T00:36:18.135Z,37.91
2022-11-28T00:38:49.080Z,38.02
2022-11-28T00:41:24.988Z,37.91
2022-11-28T00:43:55.819Z,37.93
2022-11-28T00:46:27.710Z,37.78
2022-11-28T00:48:58.465Z,38.15
2022-11-28T00:51:31.496Z,37.83
2022-11-28T00:54:06.763Z,38.06
2022-11-28T00:56:42.656Z,38.08
2022-11-28T00:59:12.665Z,37.98
2022-11-28T01:01:46.322Z,37.98
2022-11-28T01:04:20.065Z,37.88
2022-11-28T01:06:53.615Z,38.07
2022-11-28T01:09:26.755Z,37.85
2022-11-28T01:11:58.830Z,38.03
2022-11-28T01:14:30.668Z,38.14
2022-11-28T01:17:00.748Z,38.05
2022-11-28T01:19:31.434Z,38.12
2022-11-28T01:22:02.485Z,38.22
2022-11-28T01:24:33.235Z,37.87
2022-11-28T01:27:05.199Z,38.23
2022-11-28T01:29:35.731Z,38.11
2022-11-28T01:32:06.483Z,38.01
2022-11-28T01:34:36.466Z,37.95
2022-11-28T01:37:07.466Z,38.22
2022-11-28T01:39:37.355Z,37.96
2022-11-28T01:42:10.329Z,38.35
2022-11-28T01:45:14.641Z,38.32
2022-11-28T01:47:46.218Z,38.31
2022-11-28T01:50:18.331Z,38.26
2022-11-28T01:52:56.180Z,38.30
2022-11-28T01:55:32.171Z,38.19
2022-11-28T01:58:04.774Z,38.28
2022-11-28T02:00:35.089Z,38.30
2022-11-28T02:03:13.180Z,38.33
2022-11-28T02:05:44.659Z,38.24
2022-11-28T02:08:15.469Z,38.39
2022-11-28T02:11:14.755Z,38.58
2022-11-28T02:13:59.100Z,38.47
2022-11-28T02:16:51.871Z,38.46
2022-11-28T02:20:16.634Z,38.16
2022-11-28T02:23:02.894Z,38.54
2022-11-28T02:26:17.317Z,38.39
2022-11-28T02:29:41.270Z,38.26
2022-11-28T02:32:43.192Z,38.30
2022-11-28T02:35:21.538Z,38.30
2022-11-28T02:38:12.054Z,38.47
2022-11-28T02:40:53.165Z,38.26
2022-11-28T02:43:35.883Z,38.82
2022-11-28T02:46:16.221Z,38.79
2022-11-28T02:48:56.044Z,38.62
2022-11-28T02:51:32.700Z,38.70
2022-11-28T02:54:06.686Z,38.98
2022-11-28T02:56:38.171Z,38.92
2022-11-28T02:59:32.374Z,38.55
2022-11-28T03:02:04.498Z,38.93
2022-11-28T03:04:47.546Z,38.94
2022-11-28T03:07:36.699Z,38.79
2022-11-28T03:10:25.350Z,38.67
2022-11-28T03:13:11.600Z,38.99
2022-11-28T03:15:51.439Z,38.92
2022-11-28T03:18:28.729Z,38.74
2022-11-28T03:21:14.768Z,38.89
2022-11-28T03:23:54.805Z,39.10
2022-11-28T03:26:35.310Z,38.85
2022-11-28T03:29:15.702Z,38.80
2022-11-28T03:31:55.067Z,38.76
2022-11-28T03:34:33.171Z,39.03
2022-11-28T03:37:11.791Z,38.90
2022-11-28T03:39:49.459Z,39.04
2022-11-28T03:42:25.690Z,39.01
2022-11-28T03:45:01.922Z,38.67
2022-11-28T03:47:42.479Z,38.76
2022-11-28T03:50:21.676Z,38.76
2022-11-28T03:53:01.048Z,39.06
2022-11-28T03:55:40.652Z,39.00
2022-11-28T03:58:24.050Z,39.31
2022-11-28T04:01:06.298Z,39.00
2022-11-28T04:03:49.017Z,39.29
2022-11-28T04:06:27.658Z,39.05
2022-11-28T04:09:14.387Z,38.82
2022-11-28T04:11:52.721Z,39.20
2022-11-28T04:14:29.959Z,39.13
2022-11-28T04:17:10.849Z,39.07
2022-11-28T04:19:46.123Z,38.93
2022-11-28T04:22:22.487Z,39.01
2022-11-28T04:24:59.761Z,39.39
2022-11-28T04:27:36.325Z,39.27
2022-11-28T04:30:11.360Z,39.38
2022-11-28T04:32:49.456Z,39.09
2022-11-28T04:35:33.739Z,39.29
2022-11-28T04:38:17.603Z,39.05
2022-11-28T04:40:57.195Z,39.57
2022-11-28T04:43:33.418Z,39.14
2022-11-28T04:46:12.185Z,39.52
2022-11-28T04:48:43.565Z,39.22
2022-11-28T04:51:24.767Z,39.57
2022-11-28T04:54:04.422Z,39.48
2022-11-28T04:56:45.894Z,39.77
2022-11-28T04:59:17.970Z,39.36
2022-11-28T05:01:52.368Z,39.88
2022-11-28T05:04:23.290Z,39.82
2022-11-28T05:06:54.093Z,39.68
2022-11-28T05:09:23.892Z,40.15
2022-11-28T05:11:55.439Z,39.63
2022-11-28T05:14:26.358Z,40.29
2022-11-28T05:16:56.556Z,39.74
2022-11-28T05:19:27.486Z,39.76
2022-11-28T05:21:58.092Z,39.72
2022-11-28T05:24:32.258Z,39.70
2022-11-28T05:27:05.112Z,39.64
2022-11-28T05:29:35.823Z,39.72
2022-11-28T05:32:07.154Z,39.79
2022-11-28T05:34:38.449Z,39.98
2022-11-28T05:37:08.961Z,40.19
2022-11-28T05:39:39.253Z,40.22
2022-11-28T05:42:11.650Z,39.92
2022-11-28T05:44:42.455Z,40.36
2022-11-28T05:47:12.501Z,40.25
2022-11-28T05:49:42.934Z,40.32
2022-11-28T05:52:13.148Z,40.53
2022-11-28T05:54:43.848Z,40.47
2022-11-28T05:57:16.476Z,41.02
2022-11-28T05:59:46.507Z,40.88
2022-11-28T06:02:17.192Z,41.07
2022-11-28T06:04:47.477Z,41.01
2022-11-28T06:07:19.148Z,41.39
2022-11-28T06:09:48.864Z,41.50
2022-11-28T06:12:20.655Z,41.51
2022-11-28T06:14:51.283Z,41.51
2022-11-28T06:17:22.215Z,41.89
2022-11-28T06:19:52.937Z,41.81
2022-11-28T06:22:23.181Z,41.70
2022-11-28T06:24:54.163Z,41.70
2022-11-28T06:27:26.330Z,41.54
2022-11-28T06:29:56.707Z,41.74
2022-11-28T06:32:27.265Z,41.44
2022-11-28T06:34:57.894Z,41.35
2022-11-28T06:37:28.471Z,41.43
2022-11-28T06:40:01.583Z,41.19
2022-11-28T06:42:34.314Z,41.01
2022-11-28T06:45:04.449Z,40.98
2022-11-28T06:47:34.299Z,40.91
2022-11-28T06:50:05.424Z,40.46
2022-11-28T06:52:36.200Z,40.02
2022-11-28T06:55:06.683Z,40.05
2022-11-28T06:57:39.703Z,40.00
2022-11-28T07:00:12.346Z,39.49
2022-11-28T07:02:42.591Z,39.17
2022-11-28T07:05:13.335Z,39.09
2022-11-28T07:07:53.827Z,38.76
2022-11-28T07:10:25.587Z,38.89
2022-11-28T07:13:05.109Z,38.45
2022-11-28T07:15:36.238Z,38.48
2022-11-28T07:18:07.142Z,39.03
2022-11-28T07:20:38.612Z,38.69
2022-11-28T07:23:08.759Z,38.33
2022-11-28T07:25:38.974Z,38.57
2022-11-28T07:28:13.653Z,37.70
2022-11-28T07:30:43.848Z,37.39
2022-11-28T07:33:14.500Z,37.56
2022-11-28T07:35:45.020Z,37.42
2022-11-28T07:38:15.642Z,37.80
2022-11-28T07:40:45.543Z,37.09
2022-11-28T07:43:17.358Z,36.79
2022-11-28T07:46:00.626Z,37.22
2022-11-28T07:48:32.302Z,37.27
2022-11-28T07:51:03.022Z,37.10
2022-11-28T07:53:33.553Z,37.44
2022-11-28T07:56:05.414Z,37.58
2022-11-28T07:58:39.415Z,37.40
2022-11-28T08:01:12.833Z,37.66
2022-11-28T08:03:45.093Z,37.25
2022-11-28T08:06:16.955Z,37.10
2022-11-28T08:08:47.959Z,36.87
2022-11-28T08:11:20.690Z,36.65
2022-11-28T08:13:56.551Z,36.41
2022-11-28T08:16:31.137Z,36.60
2022-11-28T08:19:04.586Z,36.23
2022-11-28T08:21:36.350Z,36.58
2022-11-28T08:24:08.798Z,35.98
2022-11-28T08:26:39.283Z,35.24
2022-11-28T08:29:13.109Z,35.05
2022-11-28T08:31:43.674Z,34.24
2022-11-28T08:34:13.491Z,34.15
2022-11-28T08:36:43.722Z,34.08
2022-11-28T08:39:30.055Z,33.75
2022-11-28T08:42:00.626Z,32.99
2022-11-28T08:44:34.152Z,32.93
2022-11-28T08:47:04.125Z,32.33
2022-11-28T08:49:34.574Z,32.52
2022-11-28T08:52:05.856Z,31.91
2022-11-28T08:54:36.302Z,31.95
2022-11-28T08:57:06.936Z,32.48
2022-11-28T08:59:39.971Z,32.34
2022-11-28T09:02:13.014Z,32.12
2022-11-28T09:04:42.978Z,31.75
2022-11-28T09:07:12.681Z,31.95
2022-11-28T09:09:42.694Z,31.72
2022-11-28T09:12:12.718Z,31.79
2022-11-28T09:14:45.668Z,31.65
2022-11-28T09:17:16.280Z,32.02
2022-11-28T09:19:46.786Z,31.98
2022-11-28T09:22:16.824Z,32.60
2022-11-28T09:24:46.292Z,32.21
2022-11-28T09:27:18.505Z,32.31
2022-11-28T09:29:50.971Z,32.28
2022-11-28T09:32:21.118Z,32.65
2022-11-28T09:34:51.829Z,32.02
2022-11-28T09:37:21.740Z,32.24
2022-11-28T09:40:12.179Z,31.95
2022-11-28T09:42:45.317Z,32.18
2022-11-28T09:45:21.717Z,32.38
2022-11-28T09:47:56.640Z,32.02
2022-11-28T09:50:32.442Z,31.96
2022-11-28T09:53:18.189Z,32.45
2022-11-28T09:55:53.204Z,31.72
2022-11-28T09:58:36.301Z,31.88
2022-11-28T10:01:19.076Z,32.28
2022-11-28T10:04:02.184Z,31.97
2022-11-28T10:06:42.946Z,32.09
2022-11-28T10:09:35.825Z,32.06
2022-11-28T10:12:29.034Z,32.62
2022-11-28T10:15:27.876Z,32.63
2022-11-28T10:18:22.259Z,32.49
2022-11-28T10:20:59.808Z,32.60
2022-11-28T10:23:37.735Z,32.74
2022-11-28T10:26:14.433Z,32.63
2022-11-28T10:28:52.147Z,32.33
2022-11-28T10:31:36.276Z,32.34
2022-11-28T10:34:18.071Z,32.66
2022-11-28T10:36:59.831Z,32.64
2022-11-28T10:39:30.817Z,32.79
2022-11-28T10:42:15.199Z,32.62
2022-11-28T10:45:06.233Z,32.83
2022-11-28T10:48:37.574Z,32.49
2022-11-28T10:51:10.999Z,32.96
2022-11-28T10:53:55.455Z,32.97
2022-11-28T10:56:43.326Z,32.64
2022-11-28T10:59:30.180Z,32.96
2022-11-28T11:02:02.149Z,32.66
2022-11-28T11:04:39.485Z,32.72
2022-11-28T11:07:25.089Z,32.89
2022-11-28T11:10:02.948Z,33.23
2022-11-28T11:12:36.895Z,33.31
2022-11-28T11:15:32.289Z,33.51
2022-11-28T11:18:07.997Z,33.68
2022-11-28T11:20:41.502Z,33.88
2022-11-28T11:23:20.764Z,33.21
2022-11-28T11:25:58.927Z,33.33
2022-11-28T11:28:45.403Z,33.62
2022-11-28T11:31:26.012Z,33.93
2022-11-28T11:34:06.622Z,33.78
2022-11-28T11:36:39.878Z,33.88
2022-11-28T11:39:25.789Z,33.38
2022-11-28T11:42:22.497Z,33.59
2022-11-28T11:44:55.595Z,34.20
2022-11-28T11:47:45.411Z,33.94
2022-11-28T11:50:22.942Z,33.98
2022-11-28T11:53:07.275Z,33.97
2022-11-28T11:55:50.577Z,34.66
2022-11-28T11:58:25.883Z,34.13
2022-11-28T12:01:01.214Z,34.47
2022-11-28T12:03:42.010Z,34.54
2022-11-28T12:06:20.554Z,34.60
2022-11-28T12:08:55.832Z,34.46
2022-11-28T12:11:36.332Z,34.29
2022-11-28T12:14:27.472Z,34.75
2022-11-28T12:20:45.403Z,34.93
2022-11-28T12:23:40.252Z,34.59
2022-11-28T12:26:23.427Z,34.72
2022-11-28T12:32:26.704Z,34.85
2022-11-28T12:35:18.543Z,34.60
2022-11-28T12:38:10.604Z,34.86
2022-11-28T12:40:57.576Z,34.83
2022-11-28T12:43:47.225Z,35.38
2022-11-28T12:46:32.980Z,35.34
2022-11-28T12:49:19.318Z,35.35
2022-11-28T12:52:19.514Z,35.13
2022-11-28T12:55:08.164Z,35.43
2022-11-28T12:57:51.182Z,35.29
2022-11-28T13:00:26.697Z,35.49
2022-11-28T13:03:16.050Z,35.71
2022-11-28T13:06:00.377Z,35.65
2022-11-28T13:08:53.467Z,35.31
2022-11-28T13:11:42.900Z,35.63
2022-11-28T13:14:26.692Z,35.73
2022-11-28T13:17:04.575Z,35.65
2022-11-28T13:19:54.383Z,35.90
2022-11-28T13:22:32.560Z,35.91
2022-11-28T13:25:14.920Z,35.90
2022-11-28T13:28:01.491Z,35.63
2022-11-28T13:30:41.834Z,35.69
2022-11-28T13:33:36.899Z,35.83
2022-11-28T13:38:35.022Z,36.00
2022-11-28T13:39:16.964Z,36.34
2022-11-28T13:42:36.462Z,36.03
2022-11-28T13:44:58.895Z,36.14
2022-11-28T13:47:37.135Z,36.49
2022-11-28T13:50:43.740Z,36.26
2022-11-28T13:53:26.850Z,36.46
2022-11-28T13:56:27.823Z,36.41
2022-11-28T13:59:02.622Z,36.47
2022-11-28T14:01:45.802Z,36.48
2022-11-28T14:04:18.205Z,36.05
2022-11-28T14:06:54.931Z,36.37
2022-11-28T14:09:45.034Z,35.94
2022-11-28T14:12:34.644Z,36.38
2022-11-28T14:15:28.164Z,36.36
2022-11-28T14:18:54.885Z,36.13
2022-11-28T14:21:33.074Z,36.28
2022-11-28T14:24:17.722Z,36.26
2022-11-28T14:26:51.456Z,36.52
2022-11-28T14:29:27.752Z,36.53
2022-11-28T14:34:51.706Z,36.50
2022-11-28T14:37:57.944Z,36.36
2022-11-28T14:41:06.286Z,36.45
2022-11-28T14:43:41.304Z,35.92
2022-11-28T14:46:32.413Z,36.22
2022-11-28T14:49:25.367Z,36.42
2022-11-28T14:52:39.408Z,36.18
2022-11-28T14:55:27.562Z,36.38
2022-11-28T14:58:04.669Z,36.49
2022-11-28T15:00:53.370Z,36.28
2022-11-28T15:03:40.394Z,36.77
2022-11-28T15:06:20.944Z,36.71
2022-11-28T15:09:07.533Z,36.57
2022-11-28T15:12:15.800Z,36.72
2022-11-28T15:14:49.528Z,36.79
2022-11-28T15:17:31.146Z,36.64
2022-11-28T15:20:07.619Z,36.71
2022-11-28T15:22:46.100Z,36.16
2022-11-28T15:25:23.778Z,36.49
2022-11-28T15:27:56.247Z,36.52
2022-11-28T15:30:29.270Z,36.60
2022-11-28T15:33:03.381Z,36.75
2022-11-28T15:35:35.249Z,36.33
2022-11-28T15:38:05.429Z,36.50
2022-11-28T15:40:38.608Z,36.69
2022-11-28T15:43:12.869Z,36.86
2022-11-28T15:45:44.248Z,36.68
2022-11-28T15:48:39.301Z,36.51
2022-11-28T15:51:11.786Z,36.56
2022-11-28T15:53:44.609Z,36.74
2022-11-28T15:56:17.851Z,36.58
2022-11-28T15:58:51.679Z,36.70
2022-11-28T16:01:24.247Z,36.46
2022-11-28T16:04:02.630Z,36.54
2022-11-28T16:06:37.037Z,36.63
2022-11-28T16:09:10.914Z,36.63
2022-11-28T16:11:41.368Z,36.74
2022-11-28T16:14:24.134Z,36.54
2022-11-28T16:16:55.046Z,36.70
2022-11-28T16:19:33.232Z,36.63
2022-11-28T16:22:07.349Z,36.84
2022-11-28T16:24:49.722Z,36.55
2022-11-28T16:27:39.948Z,37.07
2022-11-28T16:30:31.544Z,36.73
2022-11-28T16:33:01.656Z,36.70
2022-11-28T16:35:40.868Z,36.68
2022-11-28T16:38:21.097Z,36.92
2022-11-28T16:40:52.040Z,36.78
2022-11-28T16:43:31.802Z,36.83
2022-11-28T16:46:03.585Z,36.76
2022-11-28T16:48:37.911Z,36.78
2022-11-28T16:51:37.001Z,36.98
2022-11-28T16:54:36.430Z,37.06
2022-11-28T16:57:17.130Z,36.96
2022-11-28T16:59:48.047Z,37.04
2022-11-28T17:02:21.461Z,36.84
2022-11-28T17:04:54.188Z,36.91
2022-11-28T17:07:27.746Z,36.92
2022-11-28T17:09:57.861Z,36.96
2022-11-28T17:12:32.813Z,37.01
2022-11-28T17:15:02.825Z,37.17
2022-11-28T17:17:33.972Z,37.21
2022-11-28T17:20:04.919Z,37.12
2022-11-28T17:22:43.098Z,36.66
2022-11-28T17:25:19.473Z,36.92
2022-11-28T17:27:51.084Z,37.07
2022-11-28T17:30:22.733Z,37.09
2022-11-28T17:32:53.175Z,36.99
2022-11-28T17:35:26.924Z,36.95
2022-11-28T17:37:59.288Z,37.02
2022-11-28T17:40:34.999Z,37.18
2022-11-28T17:43:06.137Z,37.14
2022-11-28T17:45:38.269Z,36.90
2022-11-28T17:48:09.773Z,37.22
2022-11-28T17:50:40.061Z,37.20
2022-11-28T17:53:14.320Z,37.20
2022-11-28T17:55:46.244Z,37.19
2022-11-28T17:58:22.179Z,36.85
2022-11-28T18:00:57.369Z,37.12
2022-11-28T18:03:31.160Z,37.06
2022-11-28T18:06:01.723Z,37.35
2022-11-28T18:08:35.025Z,37.18
2022-11-28T18:11:07.030Z,37.09
2022-11-28T18:13:38.358Z,37.18
2022-11-28T18:16:09.384Z,37.11
2022-11-28T18:18:41.156Z,37.02
2022-11-28T18:21:12.726Z,36.98
2022-11-28T18:23:49.771Z,37.07
2022-11-28T18:26:23.336Z,37.05
2022-11-28T18:28:54.945Z,37.09
2022-11-28T18:31:28.537Z,37.10
2022-11-28T18:34:02.658Z,37.01
2022-11-28T18:36:38.379Z,37.16
2022-11-28T18:39:14.758Z,37.21
2022-11-28T18:41:45.957Z,37.12
2022-11-28T18:44:16.035Z,37.05
2022-11-28T18:46:46.317Z,37.12
2022-11-28T18:49:19.500Z,37.27
2022-11-28T18:51:50.065Z,37.27
2022-11-28T18:54:22.413Z,37.21
2022-11-28T18:56:53.569Z,37.06
2022-11-28T18:59:24.235Z,37.16
2022-11-28T19:01:54.924Z,37.09
2022-11-28T19:04:25.540Z,36.90
2022-11-28T19:06:56.081Z,37.06
2022-11-28T19:09:28.287Z,37.16
2022-11-28T19:11:58.871Z,37.08
2022-11-28T19:14:29.378Z,37.26
2022-11-28T19:17:00.204Z,37.13
2022-11-28T19:19:30.898Z,37.16
2022-11-28T19:22:02.603Z,37.10
2022-11-28T19:24:35.496Z,37.35
2022-11-28T19:27:09.644Z,37.20
2022-11-28T19:29:44.587Z,37.03
2022-11-28T19:32:14.802Z,37.21
2022-11-28T19:34:44.798Z,37.35
2022-11-28T19:37:16.212Z,37.36
2022-11-28T19:39:49.310Z,37.45
2022-11-28T19:42:19.243Z,37.53
2022-11-28T19:44:49.021Z,37.53
2022-11-28T19:47:19.656Z,37.45
2022-11-28T19:49:50.527Z,37.66
2022-11-28T19:52:21.073Z,37.34
2022-11-28T19:54:53.083Z,37.61
2022-11-28T19:57:24.444Z,37.56
2022-11-28T19:59:54.518Z,37.60
2022-11-28T20:02:25.114Z,37.71
2022-11-28T20:04:55.888Z,38.05
2022-11-28T20:07:26.202Z,37.76
2022-11-28T20:09:58.773Z,37.77
2022-11-28T20:12:29.198Z,37.82
2022-11-28T20:14:59.517Z,37.81
2022-11-28T20:17:30.119Z,38.06
2022-11-28T20:20:00.271Z,38.00
2022-11-28T20:22:31.211Z,38.29
2022-11-28T20:25:03.948Z,37.97
2022-11-28T20:27:34.403Z,38.08
2022-11-28T20:30:06.448Z,38.36
2022-11-28T20:32:36.068Z,38.23
2022-11-28T20:35:06.326Z,38.15
2022-11-28T20:37:36.549Z,38.21
2022-11-28T20:40:10.575Z,38.15
2022-11-28T20:42:41.215Z,38.32
2022-11-28T20:45:12.309Z,38.34
2022-11-28T20:47:48.253Z,38.30
2022-11-28T20:50:20.568Z,38.40
2022-11-28T20:52:51.414Z,38.57
2022-11-28T20:55:24.102Z,38.38
2022-11-28T20:57:54.103Z,38.60
2022-11-28T21:00:26.861Z,38.39
2022-11-28T21:02:57.602Z,38.29
2022-11-28T21:05:28.153Z,38.49
2022-11-28T21:07:58.322Z,38.40
2022-11-28T21:10:33.396Z,38.31
2022-11-28T21:13:04.399Z,38.29
2022-11-28T21:15:34.946Z,38.13
2022-11-28T21:18:05.458Z,38.10
2022-11-28T21:20:36.045Z,38.57
2022-11-28T21:23:06.298Z,38.39
2022-11-28T21:25:41.288Z,38.25
2022-11-28T21:28:15.178Z,38.29
2022-11-28T21:30:48.655Z,38.40
2022-11-28T21:33:18.730Z,38.31
2022-11-28T21:35:49.147Z,38.34
2022-11-28T21:38:19.117Z,38.12
2022-11-28T21:40:57.789Z,38.16
2022-11-28T21:43:27.956Z,38.12
2022-11-28T21:46:02.804Z,38.43
2022-11-28T21:48:34.479Z,38.53
2022-11-28T21:51:05.570Z,38.27
2022-11-28T21:53:37.050Z,38.43
2022-11-28T21:56:09.990Z,37.95
2022-11-28T21:58:40.600Z,38.34
2022-11-28T22:01:12.996Z,38.38
2022-11-28T22:03:44.658Z,38.36
2022-11-28T22:06:19.568Z,38.37
2022-11-28T22:08:50.527Z,38.51
2022-11-28T22:11:24.594Z,38.58
2022-11-28T22:13:54.939Z,38.52
2022-11-28T22:16:29.772Z,38.46
2022-11-28T22:19:03.498Z,38.38
2022-11-28T22:24:24.650Z,38.45
2022-11-28T22:26:57.587Z,38.47
2022-11-28T22:29:27.281Z,38.62
2022-11-28T22:31:57.972Z,38.48
2022-11-28T22:34:28.383Z,38.35
2022-11-28T22:36:58.573Z,38.55
2022-11-28T22:39:29.062Z,38.43
2022-11-28T22:42:00.563Z,38.39
2022-11-28T22:44:31.203Z,38.36
2022-11-28T22:47:07.180Z,38.50
2022-11-28T22:49:37.908Z,38.26
2022-11-28T22:52:08.894Z,38.46
2022-11-28T22:54:39.666Z,38.72
2022-11-28T22:57:11.705Z,38.51
2022-11-28T22:59:41.738Z,38.52
2022-11-28T23:02:12.629Z,38.64
2022-11-28T23:04:43.891Z,38.31
2022-11-28T23:07:14.792Z,38.42
2022-11-28T23:09:44.961Z,38.51
2022-11-28T23:12:17.412Z,38.54
2022-11-28T23:14:48.231Z,38.56
2022-11-28T23:17:18.762Z,38.58
2022-11-28T23:19:49.691Z,38.33
2022-11-28T23:22:20.157Z,38.71
2022-11-28T23:24:50.268Z,38.85
2022-11-28T23:27:22.760Z,38.63
2022-11-28T23:29:52.868Z,38.43
2022-11-28T23:32:22.924Z,38.69
2022-11-28T23:34:53.385Z,38.66
2022-11-28T23:37:24.041Z,38.59
2022-11-28T23:39:54.452Z,38.73
2022-11-28T23:42:27.328Z,38.84
2022-11-28T23:44:57.235Z,38.61
2022-11-28T23:47:27.228Z,38.70
2022-11-28T23:49:57.751Z,38.66
2022-11-28T23:52:28.375Z,38.42
2022-11-28T23:54:58.403Z,38.72
2022-11-28T23:57:31.934Z,38.59
